createdAt,value
2017-06-21T13:57:19.535Z,11.80
2017-06-21T13:59:49.428Z,11.90
2017-06-21T14:02:21.111Z,11.90
2017-06-21T14:04:52.857Z,11.60
2017-06-21T14:07:22.869Z,11.80
2017-06-21T14:09:53.439Z,12.00
2017-06-21T14:12:24.892Z,11.80
2017-06-21T14:14:55.158Z,11.60
2017-06-21T14:17:26.024Z,11.00
2017-06-21T14:19:56.470Z,10.90
2017-06-21T14:22:27.671Z,10.70
2017-06-21T14:24:57.700Z,10.90
2017-06-21T14:27:27.802Z,10.90
2017-06-21T14:30:01.015Z,11.90
2017-06-21T14:32:31.782Z,13.00
2017-06-21T14:35:04.493Z,13.40
2017-06-21T14:37:35.398Z,12.60
2017-06-21T14:40:05.596Z,12.10
2017-06-21T14:42:38.994Z,11.40
2017-06-21T14:45:13.786Z,11.10
2017-06-21T14:47:45.972Z,9.90
2017-06-21T14:50:16.791Z,9.70
2017-06-21T14:52:46.745Z,10.60
2017-06-21T14:55:16.841Z,11.40
2017-06-21T14:57:47.599Z,11.50
2017-06-21T15:00:18.870Z,12.10
2017-06-21T15:02:49.109Z,11.20
2017-06-21T15:05:21.217Z,11.10
2017-06-21T15:07:51.078Z,11.00
2017-06-21T15:10:21.341Z,10.70
2017-06-21T15:12:51.506Z,11.10
2017-06-21T15:15:27.841Z,11.30
2017-06-21T15:17:57.816Z,11.40
2017-06-21T15:20:29.868Z,10.90
2017-06-21T15:22:59.774Z,10.80
2017-06-21T15:25:30.252Z,11.10
2017-06-21T15:28:01.217Z,10.60
2017-06-21T15:30:32.912Z,10.10
2017-06-21T15:33:02.886Z,10.60
2017-06-21T15:35:33.081Z,10.20
2017-06-21T15:38:04.033Z,9.80
2017-06-21T15:40:34.824Z,9.80
2017-06-21T15:43:04.702Z,9.80
2017-06-21T15:45:35.851Z,10.00
2017-06-21T15:48:05.751Z,9.90
2017-06-21T15:50:35.849Z,10.20
2017-06-21T15:53:06.066Z,10.60
2017-06-21T15:55:36.659Z,11.30
2017-06-21T15:58:07.692Z,12.50
2017-06-21T16:00:38.342Z,12.20
2017-06-21T16:03:08.174Z,11.40
2017-06-21T16:05:38.311Z,11.20
2017-06-21T16:08:08.161Z,11.20
2017-06-21T16:10:40.037Z,12.40
2017-06-21T16:13:10.376Z,12.90
2017-06-21T16:15:42.800Z,12.70
2017-06-21T16:18:12.662Z,12.70
2017-06-21T16:20:42.983Z,12.80
2017-06-21T16:23:16.461Z,13.70
2017-06-21T16:25:48.286Z,13.90
2017-06-21T16:28:18.262Z,13.90
2017-06-21T16:30:48.721Z,14.20
2017-06-21T16:33:19.075Z,14.80
2017-06-21T16:35:49.281Z,15.00
2017-06-21T16:38:19.175Z,15.60
2017-06-21T16:40:50.644Z,15.90
2017-06-21T16:43:21.668Z,16.20
2017-06-21T16:45:59.981Z,16.50
2017-06-21T16:48:30.238Z,16.50
2017-06-21T16:51:00.438Z,17.10
2017-06-21T16:53:30.294Z,17.70
2017-06-21T16:56:00.590Z,17.80
2017-06-21T16:58:31.175Z,19.10
2017-06-21T17:01:01.238Z,19.60
2017-06-21T17:03:32.846Z,19.80
2017-06-21T17:06:03.005Z,19.60
2017-06-21T17:08:33.637Z,21.50
2017-06-21T17:11:05.085Z,22.10
2017-06-21T17:13:35.042Z,22.50
2017-06-21T17:16:05.018Z,21.90
2017-06-21T17:18:35.839Z,21.70
2017-06-21T17:21:05.930Z,22.30
2017-06-21T17:23:35.788Z,21.50
2017-06-21T17:26:05.893Z,21.50
2017-06-21T17:28:36.001Z,21.60
2017-06-21T17:31:07.126Z,21.60
2017-06-21T17:33:37.301Z,21.50
2017-06-21T17:36:09.259Z,21.50
2017-06-21T17:38:39.124Z,21.70
2017-06-21T17:41:10.437Z,22.50
2017-06-21T17:43:40.422Z,22.50
2017-06-21T17:46:12.599Z,23.00
2017-06-21T17:48:42.485Z,23.10
2017-06-21T17:51:12.491Z,23.20
2017-06-21T17:53:42.353Z,23.70
2017-06-21T17:56:12.319Z,24.10
2017-06-21T17:58:42.234Z,24.40
2017-06-21T18:01:12.434Z,24.90
2017-06-21T18:03:42.270Z,25.20
2017-06-21T18:06:13.618Z,26.40
2017-06-21T18:08:43.560Z,26.40
2017-06-21T18:11:14.758Z,27.00
2017-06-21T18:13:45.626Z,27.50
2017-06-21T18:16:15.806Z,27.80
2017-06-21T18:18:45.704Z,28.20
2017-06-21T18:21:16.205Z,28.50
2017-06-21T18:23:48.034Z,28.90
2017-06-21T18:26:25.177Z,29.50
2017-06-21T18:28:55.256Z,29.50
2017-06-21T18:31:25.564Z,29.60
2017-06-21T18:33:55.521Z,30.40
2017-06-21T18:36:25.932Z,31.10
2017-06-21T18:38:55.858Z,31.60
2017-06-21T18:41:25.950Z,32.10
2017-06-21T18:43:55.843Z,32.70
2017-06-21T18:46:27.672Z,33.30
2017-06-21T18:48:57.671Z,33.20
2017-06-21T18:51:27.714Z,33.70
2017-06-21T18:53:57.934Z,34.30
2017-06-21T18:56:29.313Z,34.80
2017-06-21T18:58:59.213Z,35.20
2017-06-21T19:01:31.206Z,35.70
2017-06-21T19:04:01.410Z,36.50
2017-06-21T19:06:40.435Z,36.80
2017-06-21T19:09:10.443Z,37.60
2017-06-21T19:11:40.743Z,37.50
2017-06-21T19:14:12.303Z,37.40
2017-06-21T19:16:42.630Z,37.30
2017-06-21T19:19:13.864Z,37.80
2017-06-21T19:21:47.422Z,39.50
2017-06-21T19:24:20.607Z,38.70
2017-06-21T19:29:32.580Z,39.80
2017-06-21T19:32:02.923Z,40.70
2017-06-21T19:34:33.934Z,40.70
2017-06-21T19:37:04.306Z,40.90
2017-06-21T19:39:35.835Z,41.60
2017-06-21T19:42:06.017Z,42.40
2017-06-21T19:44:35.884Z,42.20
2017-06-21T19:47:06.762Z,43.80
2017-06-21T19:49:38.421Z,44.00
2017-06-21T19:52:08.748Z,44.80
2017-06-21T19:54:38.658Z,45.60
2017-06-21T19:57:11.796Z,46.00
2017-06-21T19:59:42.165Z,45.90
2017-06-21T20:02:12.473Z,45.80
2017-06-21T20:04:43.190Z,46.20
2017-06-21T20:07:15.234Z,47.30
2017-06-21T20:09:48.147Z,47.90
2017-06-21T20:12:19.964Z,48.20
2017-06-21T20:14:50.911Z,48.20
2017-06-21T20:17:22.592Z,48.80
2017-06-21T20:19:53.142Z,48.80
2017-06-21T20:22:26.738Z,49.30
2017-06-21T20:24:58.640Z,49.60
2017-06-21T20:27:28.889Z,49.80
2017-06-21T20:30:00.207Z,49.90
2017-06-21T20:41:15.171Z,51.00
2017-06-21T20:43:45.080Z,51.40
2017-06-21T20:46:15.058Z,51.90
2017-06-21T20:48:47.683Z,51.90
2017-06-21T20:51:18.781Z,52.40
2017-06-21T20:53:48.628Z,52.50
2017-06-21T20:56:18.530Z,52.60
2017-06-21T20:58:48.599Z,52.90
2017-06-21T21:01:18.480Z,53.70
2017-06-21T21:03:48.302Z,53.70
2017-06-21T21:06:18.141Z,53.60
2017-06-21T21:08:48.475Z,53.50
2017-06-21T21:11:18.898Z,54.20
2017-06-21T21:13:48.757Z,55.00
2017-06-21T21:16:19.651Z,55.40
2017-06-21T21:18:49.955Z,56.20
2017-06-21T21:21:19.799Z,56.50
2017-06-21T21:23:51.236Z,56.60
2017-06-21T21:26:21.518Z,57.10
2017-06-21T21:28:51.365Z,57.70
2017-06-21T21:31:21.211Z,57.40
2017-06-21T21:33:51.017Z,57.70
2017-06-21T21:36:20.970Z,58.20
2017-06-21T21:38:50.809Z,57.80
2017-06-21T21:41:20.841Z,58.40
2017-06-21T21:43:50.709Z,58.50
2017-06-21T21:46:21.243Z,58.60
2017-06-21T21:48:51.031Z,59.00
2017-06-21T21:51:20.875Z,59.20
2017-06-21T21:53:50.779Z,59.20
2017-06-21T21:56:20.569Z,59.60
2017-06-21T21:58:50.424Z,60.00
2017-06-21T22:01:20.338Z,60.00
2017-06-21T22:03:50.918Z,61.70
2017-06-21T22:06:21.542Z,61.60
2017-06-21T22:08:51.711Z,61.50
2017-06-21T22:11:21.943Z,61.40
2017-06-21T22:13:51.822Z,62.20
2017-06-21T22:16:22.274Z,62.60
2017-06-21T22:18:53.262Z,62.00
2017-06-21T22:21:23.142Z,62.50
2017-06-21T22:23:53.639Z,64.40
2017-06-21T22:26:23.469Z,64.30
2017-06-21T22:28:53.317Z,64.90
2017-06-21T22:31:23.152Z,66.50
2017-06-21T22:33:52.980Z,65.50
2017-06-21T22:36:22.846Z,65.90
2017-06-21T22:38:52.633Z,66.50
2017-06-21T22:41:22.430Z,66.60
2017-06-21T22:43:52.217Z,67.00
2017-06-21T22:46:22.019Z,66.70
2017-06-21T22:48:52.053Z,66.70
2017-06-21T22:51:22.813Z,66.80
2017-06-21T22:53:52.598Z,66.50
2017-06-21T22:56:22.409Z,66.80
2017-06-21T22:58:52.322Z,67.10
2017-06-21T23:01:22.115Z,67.50
2017-06-21T23:03:51.946Z,67.90
2017-06-21T23:06:21.760Z,68.30
2017-06-21T23:08:51.562Z,68.80
2017-06-21T23:11:21.349Z,68.90
2017-06-21T23:13:51.728Z,68.60
2017-06-21T23:16:21.542Z,69.00
2017-06-21T23:18:51.338Z,68.70
2017-06-21T23:21:21.175Z,68.20
2017-06-21T23:23:50.985Z,67.90
2017-06-21T23:26:20.772Z,67.40
2017-06-21T23:28:50.580Z,67.40
2017-06-21T23:31:21.156Z,67.30
2017-06-21T23:33:50.937Z,67.30
2017-06-21T23:36:20.757Z,67.40
2017-06-21T23:38:50.566Z,68.10
2017-06-21T23:41:20.352Z,67.80
2017-06-21T23:43:50.121Z,68.60
2017-06-21T23:46:19.955Z,68.10
2017-06-21T23:48:49.739Z,69.30
2017-06-21T23:51:20.556Z,69.80
2017-06-21T23:53:50.342Z,70.20
2017-06-21T23:56:20.146Z,70.20
2017-06-21T23:58:49.937Z,70.10
